sensor_id;sensor_type;location;lat;lon;timestamp;temperature;humidity
23053;DHT22;11694;-36.632;-64.318;2022-11-20T00:02:06;24.60;99.90
23053;DHT22;11694;-36.632;-64.318;2022-11-20T00:04:34;24.50;99.90
23053;DHT22;11694;-36.632;-64.318;2022-11-20T00:07:01;24.40;99.90
23053;DHT22;11694;-36.632;-64.318;2022-11-20T00:09:28;24.30;99.90
23053;DHT22;11694;-36.632;-64.318;2022-11-20T00:11:56;24.30;99.90
23053;DHT22;11694;-36.632;-64.318;2022-11-20T00:14:23;24.30;99.90
23053;DHT22;11694;-36.632;-64.318;2022-11-20T00:16:50;24.20;99.90
23053;DHT22;11694;-36.632;-64.318;2022-11-20T00:19:18;24.20;99.90
23053;DHT22;11694;-36.632;-64.318;2022-11-20T00:21:46;24.20;99.90
23053;DHT22;11694;-36.632;-64.318;2022-11-20T00:24:13;24.20;99.90
23053;DHT22;11694;-36.632;-64.318;2022-11-20T00:26:41;24.20;99.90
23053;DHT22;11694;-36.632;-64.318;2022-11-20T00:29:09;24.20;99.90
23053;DHT22;11694;-36.632;-64.318;2022-11-20T00:31:37;24.20;99.90
23053;DHT22;11694;-36.632;-64.318;2022-11-20T00:34:04;24.20;99.90
23053;DHT22;11694;-36.632;-64.318;2022-11-20T00:36:33;24.10;99.90
23053;DHT22;11694;-36.632;-64.318;2022-11-20T00:39:00;24.00;99.90
23053;DHT22;11694;-36.632;-64.318;2022-11-20T00:41:28;23.90;99.90
23053;DHT22;11694;-36.632;-64.318;2022-11-20T00:43:56;23.90;99.90
23053;DHT22;11694;-36.632;-64.318;2022-11-20T00:46:25;23.90;99.90
23053;DHT22;11694;-36.632;-64.318;2022-11-20T00:48:53;24.00;99.90
23053;DHT22;11694;-36.632;-64.318;2022-11-20T00:51:23;24.10;99.90
23053;DHT22;11694;-36.632;-64.318;2022-11-20T00:53:50;24.10;99.90
23053;DHT22;11694;-36.632;-64.318;2022-11-20T00:56:18;24.00;99.90
23053;DHT22;11694;-36.632;-64.318;2022-11-20T00:58:47;24.00;99.90
23053;DHT22;11694;-36.632;-64.318;2022-11-20T01:01:18;23.80;99.90
23053;DHT22;11694;-36.632;-64.318;2022-11-20T01:03:48;23.70;99.90
23053;DHT22;11694;-36.632;-64.318;2022-11-20T01:06:18;23.70;99.90
23053;DHT22;11694;-36.632;-64.318;2022-11-20T01:08:47;23.60;99.90
23053;DHT22;11694;-36.632;-64.318;2022-11-20T01:11:19;23.60;99.90
23053;DHT22;11694;-36.632;-64.318;2022-11-20T01:13:48;23.50;99.90
23053;DHT22;11694;-36.632;-64.318;2022-11-20T01:16:28;23.40;99.90
23053;DHT22;11694;-36.632;-64.318;2022-11-20T01:18:59;23.40;99.90
23053;DHT22;11694;-36.632;-64.318;2022-11-20T01:21:35;23.30;99.90
23053;DHT22;11694;-36.632;-64.318;2022-11-20T01:24:03;23.30;99.90
23053;DHT22;11694;-36.632;-64.318;2022-11-20T01:26:33;23.30;99.90
23053;DHT22;11694;-36.632;-64.318;2022-11-20T01:29:01;23.30;99.90
23053;DHT22;11694;-36.632;-64.318;2022-11-20T01:31:34;23.30;99.90
23053;DHT22;11694;-36.632;-64.318;2022-11-20T01:34:06;23.40;99.90
23053;DHT22;11694;-36.632;-64.318;2022-11-20T01:36:36;23.50;99.90
23053;DHT22;11694;-36.632;-64.318;2022-11-20T01:39:17;23.30;99.90
23053;DHT22;11694;-36.632;-64.318;2022-11-20T01:41:45;23.20;99.90
23053;DHT22;11694;-36.632;-64.318;2022-11-20T01:44:50;23.10;99.90
23053;DHT22;11694;-36.632;-64.318;2022-11-20T01:47:38;23.00;99.90
23053;DHT22;11694;-36.632;-64.318;2022-11-20T01:50:24;23.00;99.90
23053;DHT22;11694;-36.632;-64.318;2022-11-20T01:53:00;23.00;99.90
23053;DHT22;11694;-36.632;-64.318;2022-11-20T01:55:34;23.00;99.90
23053;DHT22;11694;-36.632;-64.318;2022-11-20T01:58:05;22.60;99.90
23053;DHT22;11694;-36.632;-64.318;2022-11-20T02:00:33;22.30;99.90
23053;DHT22;11694;-36.632;-64.318;2022-11-20T02:03:12;22.10;99.90
23053;DHT22;11694;-36.632;-64.318;2022-11-20T02:08:32;21.40;72.60
23053;DHT22;11694;-36.632;-64.318;2022-11-20T02:10:59;21.00;82.30
23053;DHT22;11694;-36.632;-64.318;2022-11-20T02:13:26;20.50;93.90
23053;DHT22;11694;-36.632;-64.318;2022-11-20T02:16:25;19.80;99.90
23053;DHT22;11694;-36.632;-64.318;2022-11-20T02:18:54;19.00;99.90
23053;DHT22;11694;-36.632;-64.318;2022-11-20T02:27:00;17.10;99.90
23053;DHT22;11694;-36.632;-64.318;2022-11-20T02:32:04;16.40;99.90
23053;DHT22;11694;-36.632;-64.318;2022-11-20T02:34:32;16.10;99.90
23053;DHT22;11694;-36.632;-64.318;2022-11-20T02:36:59;15.80;99.90
23053;DHT22;11694;-36.632;-64.318;2022-11-20T02:39:28;15.50;99.90
23053;DHT22;11694;-36.632;-64.318;2022-11-20T02:41:56;15.30;99.90
23053;DHT22;11694;-36.632;-64.318;2022-11-20T02:44:23;15.20;99.90
23053;DHT22;11694;-36.632;-64.318;2022-11-20T02:46:50;15.30;99.90
23053;DHT22;11694;-36.632;-64.318;2022-11-20T02:49:17;15.30;99.90
23053;DHT22;11694;-36.632;-64.318;2022-11-20T02:51:44;15.40;99.90
23053;DHT22;11694;-36.632;-64.318;2022-11-20T02:54:11;15.30;99.90
23053;DHT22;11694;-36.632;-64.318;2022-11-20T02:56:39;15.20;99.90
23053;DHT22;11694;-36.632;-64.318;2022-11-20T02:59:10;15.20;99.90
23053;DHT22;11694;-36.632;-64.318;2022-11-20T03:01:37;15.30;99.90
23053;DHT22;11694;-36.632;-64.318;2022-11-20T03:04:04;15.30;99.90
23053;DHT22;11694;-36.632;-64.318;2022-11-20T03:06:31;15.30;99.90
23053;DHT22;11694;-36.632;-64.318;2022-11-20T03:08:58;15.20;99.90
23053;DHT22;11694;-36.632;-64.318;2022-11-20T03:11:25;15.10;99.90
23053;DHT22;11694;-36.632;-64.318;2022-11-20T03:13:52;15.20;99.90
23053;DHT22;11694;-36.632;-64.318;2022-11-20T03:16:21;15.20;99.90
23053;DHT22;11694;-36.632;-64.318;2022-11-20T03:18:51;15.20;99.90
23053;DHT22;11694;-36.632;-64.318;2022-11-20T03:21:18;15.20;99.90
23053;DHT22;11694;-36.632;-64.318;2022-11-20T03:23:45;15.20;99.90
23053;DHT22;11694;-36.632;-64.318;2022-11-20T03:28:40;15.30;99.90
23053;DHT22;11694;-36.632;-64.318;2022-11-20T03:31:12;15.20;99.90
23053;DHT22;11694;-36.632;-64.318;2022-11-20T03:33:41;15.30;99.90
23053;DHT22;11694;-36.632;-64.318;2022-11-20T03:36:11;15.40;99.90
23053;DHT22;11694;-36.632;-64.318;2022-11-20T03:38:39;15.40;99.90
23053;DHT22;11694;-36.632;-64.318;2022-11-20T03:41:09;15.50;99.90
23053;DHT22;11694;-36.632;-64.318;2022-11-20T03:43:37;15.60;99.90
23053;DHT22;11694;-36.632;-64.318;2022-11-20T03:46:05;15.50;99.90
23053;DHT22;11694;-36.632;-64.318;2022-11-20T03:48:32;15.50;99.90
23053;DHT22;11694;-36.632;-64.318;2022-11-20T03:51:17;15.50;99.90
23053;DHT22;11694;-36.632;-64.318;2022-11-20T03:53:46;15.50;99.90
23053;DHT22;11694;-36.632;-64.318;2022-11-20T03:56:16;15.40;99.90
23053;DHT22;11694;-36.632;-64.318;2022-11-20T03:58:43;15.30;99.90
23053;DHT22;11694;-36.632;-64.318;2022-11-20T04:01:22;15.40;99.90
23053;DHT22;11694;-36.632;-64.318;2022-11-20T04:03:51;15.30;99.90
23053;DHT22;11694;-36.632;-64.318;2022-11-20T04:06:26;15.30;99.90
23053;DHT22;11694;-36.632;-64.318;2022-11-20T04:08:57;15.40;99.90
23053;DHT22;11694;-36.632;-64.318;2022-11-20T04:11:29;15.30;99.90
23053;DHT22;11694;-36.632;-64.318;2022-11-20T04:13:59;15.20;99.90
23053;DHT22;11694;-36.632;-64.318;2022-11-20T04:16:30;15.20;99.90
23053;DHT22;11694;-36.632;-64.318;2022-11-20T04:18:59;15.20;99.90
23053;DHT22;11694;-36.632;-64.318;2022-11-20T04:21:27;15.20;99.90
23053;DHT22;11694;-36.632;-64.318;2022-11-20T04:23:55;15.30;99.90
23053;DHT22;11694;-36.632;-64.318;2022-11-20T04:26:24;15.30;99.90
23053;DHT22;11694;-36.632;-64.318;2022-11-20T04:28:52;15.30;99.90
23053;DHT22;11694;-36.632;-64.318;2022-11-20T04:31:22;15.30;99.90
23053;DHT22;11694;-36.632;-64.318;2022-11-20T04:33:58;15.20;99.90
23053;DHT22;11694;-36.632;-64.318;2022-11-20T04:36:27;15.30;99.90
23053;DHT22;11694;-36.632;-64.318;2022-11-20T04:38:56;15.30;99.90
23053;DHT22;11694;-36.632;-64.318;2022-11-20T04:41:29;15.40;99.90
23053;DHT22;11694;-36.632;-64.318;2022-11-20T04:43:59;15.40;99.90
23053;DHT22;11694;-36.632;-64.318;2022-11-20T04:46:34;15.40;99.90
23053;DHT22;11694;-36.632;-64.318;2022-11-20T04:49:01;15.40;99.90
23053;DHT22;11694;-36.632;-64.318;2022-11-20T04:51:28;15.50;99.90
23053;DHT22;11694;-36.632;-64.318;2022-11-20T04:53:55;15.50;99.90
23053;DHT22;11694;-36.632;-64.318;2022-11-20T04:56:23;15.50;99.90
23053;DHT22;11694;-36.632;-64.318;2022-11-20T04:58:50;15.50;99.90
23053;DHT22;11694;-36.632;-64.318;2022-11-20T05:01:22;15.40;99.90
23053;DHT22;11694;-36.632;-64.318;2022-11-20T05:03:50;15.40;99.90
23053;DHT22;11694;-36.632;-64.318;2022-11-20T05:06:19;15.40;99.90
23053;DHT22;11694;-36.632;-64.318;2022-11-20T05:08:47;15.40;99.90
23053;DHT22;11694;-36.632;-64.318;2022-11-20T05:11:19;15.40;99.90
23053;DHT22;11694;-36.632;-64.318;2022-11-20T05:13:46;15.40;99.90
23053;DHT22;11694;-36.632;-64.318;2022-11-20T05:16:16;15.30;99.90
23053;DHT22;11694;-36.632;-64.318;2022-11-20T05:18:43;15.30;99.90
23053;DHT22;11694;-36.632;-64.318;2022-11-20T05:21:12;15.30;99.90
23053;DHT22;11694;-36.632;-64.318;2022-11-20T05:23:40;15.20;99.90
23053;DHT22;11694;-36.632;-64.318;2022-11-20T05:26:11;15.20;99.90
23053;DHT22;11694;-36.632;-64.318;2022-11-20T05:28:39;15.20;99.90
23053;DHT22;11694;-36.632;-64.318;2022-11-20T05:31:14;15.20;99.90
23053;DHT22;11694;-36.632;-64.318;2022-11-20T05:33:43;15.20;99.90
23053;DHT22;11694;-36.632;-64.318;2022-11-20T05:36:12;15.30;99.90
23053;DHT22;11694;-36.632;-64.318;2022-11-20T05:38:39;15.40;99.90
23053;DHT22;11694;-36.632;-64.318;2022-11-20T05:41:09;15.30;99.90
23053;DHT22;11694;-36.632;-64.318;2022-11-20T05:43:38;15.30;99.90
23053;DHT22;11694;-36.632;-64.318;2022-11-20T05:46:07;15.30;99.90
23053;DHT22;11694;-36.632;-64.318;2022-11-20T05:48:35;15.30;99.90
23053;DHT22;11694;-36.632;-64.318;2022-11-20T05:51:04;15.30;99.90
23053;DHT22;11694;-36.632;-64.318;2022-11-20T05:53:32;15.40;99.90
23053;DHT22;11694;-36.632;-64.318;2022-11-20T05:56:15;15.40;99.90
23053;DHT22;11694;-36.632;-64.318;2022-11-20T05:58:42;15.40;99.90
23053;DHT22;11694;-36.632;-64.318;2022-11-20T06:01:22;15.40;99.90
23053;DHT22;11694;-36.632;-64.318;2022-11-20T06:03:49;15.30;99.90
23053;DHT22;11694;-36.632;-64.318;2022-11-20T06:06:17;15.10;99.90
23053;DHT22;11694;-36.632;-64.318;2022-11-20T06:08:45;15.00;99.90
23053;DHT22;11694;-36.632;-64.318;2022-11-20T06:11:13;14.90;99.90
23053;DHT22;11694;-36.632;-64.318;2022-11-20T06:13:41;15.00;99.90
23053;DHT22;11694;-36.632;-64.318;2022-11-20T06:16:09;14.90;99.90
23053;DHT22;11694;-36.632;-64.318;2022-11-20T06:18:36;15.00;99.90
23053;DHT22;11694;-36.632;-64.318;2022-11-20T06:21:13;15.00;99.90
23053;DHT22;11694;-36.632;-64.318;2022-11-20T06:23:40;14.80;99.90
23053;DHT22;11694;-36.632;-64.318;2022-11-20T06:26:10;14.70;99.90
23053;DHT22;11694;-36.632;-64.318;2022-11-20T06:28:38;14.70;99.90
23053;DHT22;11694;-36.632;-64.318;2022-11-20T06:31:06;14.60;99.90
23053;DHT22;11694;-36.632;-64.318;2022-11-20T06:33:34;14.70;99.90
23053;DHT22;11694;-36.632;-64.318;2022-11-20T06:36:01;14.70;99.90
23053;DHT22;11694;-36.632;-64.318;2022-11-20T06:38:29;14.70;99.90
23053;DHT22;11694;-36.632;-64.318;2022-11-20T06:40:56;14.70;99.90
23053;DHT22;11694;-36.632;-64.318;2022-11-20T06:43:24;14.70;99.90
23053;DHT22;11694;-36.632;-64.318;2022-11-20T06:45:53;14.70;99.90
23053;DHT22;11694;-36.632;-64.318;2022-11-20T06:48:21;14.70;99.90
23053;DHT22;11694;-36.632;-64.318;2022-11-20T06:50:48;14.70;99.90
23053;DHT22;11694;-36.632;-64.318;2022-11-20T06:53:15;14.60;99.90
23053;DHT22;11694;-36.632;-64.318;2022-11-20T06:55:46;14.70;99.90
23053;DHT22;11694;-36.632;-64.318;2022-11-20T06:58:14;14.60;99.90
23053;DHT22;11694;-36.632;-64.318;2022-11-20T07:00:42;14.40;99.90
23053;DHT22;11694;-36.632;-64.318;2022-11-20T07:03:10;14.40;99.90
23053;DHT22;11694;-36.632;-64.318;2022-11-20T07:05:38;14.40;99.90
23053;DHT22;11694;-36.632;-64.318;2022-11-20T07:08:06;14.40;99.90
23053;DHT22;11694;-36.632;-64.318;2022-11-20T07:10:33;14.30;99.90
23053;DHT22;11694;-36.632;-64.318;2022-11-20T07:13:01;14.30;99.90
23053;DHT22;11694;-36.632;-64.318;2022-11-20T07:15:28;14.30;99.90
23053;DHT22;11694;-36.632;-64.318;2022-11-20T07:17:58;14.40;99.90
23053;DHT22;11694;-36.632;-64.318;2022-11-20T07:20:25;14.40;99.90
23053;DHT22;11694;-36.632;-64.318;2022-11-20T07:22:56;14.30;99.90
23053;DHT22;11694;-36.632;-64.318;2022-11-20T07:25:27;14.40;99.90
23053;DHT22;11694;-36.632;-64.318;2022-11-20T07:28:01;14.40;99.90
23053;DHT22;11694;-36.632;-64.318;2022-11-20T07:30:28;14.40;99.90
23053;DHT22;11694;-36.632;-64.318;2022-11-20T07:32:56;14.40;99.90
23053;DHT22;11694;-36.632;-64.318;2022-11-20T07:35:24;14.40;99.90
23053;DHT22;11694;-36.632;-64.318;2022-11-20T07:37:51;14.40;99.90
23053;DHT22;11694;-36.632;-64.318;2022-11-20T07:40:19;14.40;99.90
23053;DHT22;11694;-36.632;-64.318;2022-11-20T07:42:51;14.40;99.90
23053;DHT22;11694;-36.632;-64.318;2022-11-20T07:45:18;14.40;99.90
23053;DHT22;11694;-36.632;-64.318;2022-11-20T07:47:46;14.30;99.90
23053;DHT22;11694;-36.632;-64.318;2022-11-20T07:50:13;14.30;99.90
23053;DHT22;11694;-36.632;-64.318;2022-11-20T07:52:41;14.30;99.90
23053;DHT22;11694;-36.632;-64.318;2022-11-20T07:55:09;14.30;99.90
23053;DHT22;11694;-36.632;-64.318;2022-11-20T07:57:36;14.20;99.90
23053;DHT22;11694;-36.632;-64.318;2022-11-20T08:00:05;14.20;99.90
23053;DHT22;11694;-36.632;-64.318;2022-11-20T08:02:37;14.20;99.90
23053;DHT22;11694;-36.632;-64.318;2022-11-20T08:05:06;14.20;99.90
23053;DHT22;11694;-36.632;-64.318;2022-11-20T08:07:41;14.20;99.90
23053;DHT22;11694;-36.632;-64.318;2022-11-20T08:10:11;14.20;99.90
23053;DHT22;11694;-36.632;-64.318;2022-11-20T08:12:48;14.10;99.90
23053;DHT22;11694;-36.632;-64.318;2022-11-20T08:15:34;14.10;99.90
23053;DHT22;11694;-36.632;-64.318;2022-11-20T08:18:10;14.10;99.90
23053;DHT22;11694;-36.632;-64.318;2022-11-20T08:20:38;14.10;99.90
23053;DHT22;11694;-36.632;-64.318;2022-11-20T08:23:07;14.10;99.90
23053;DHT22;11694;-36.632;-64.318;2022-11-20T08:25:36;14.00;99.90
23053;DHT22;11694;-36.632;-64.318;2022-11-20T08:28:09;14.00;99.90
23053;DHT22;11694;-36.632;-64.318;2022-11-20T08:30:37;14.00;99.90
23053;DHT22;11694;-36.632;-64.318;2022-11-20T08:33:06;13.90;99.90
23053;DHT22;11694;-36.632;-64.318;2022-11-20T08:35:35;13.90;99.90
23053;DHT22;11694;-36.632;-64.318;2022-11-20T08:38:04;13.90;99.90
23053;DHT22;11694;-36.632;-64.318;2022-11-20T08:40:31;13.90;99.90
23053;DHT22;11694;-36.632;-64.318;2022-11-20T08:42:58;13.80;99.90
23053;DHT22;11694;-36.632;-64.318;2022-11-20T08:45:26;13.80;99.90
23053;DHT22;11694;-36.632;-64.318;2022-11-20T08:47:53;13.80;99.90
23053;DHT22;11694;-36.632;-64.318;2022-11-20T08:50:20;13.80;99.90
23053;DHT22;11694;-36.632;-64.318;2022-11-20T08:52:47;13.80;99.90
23053;DHT22;11694;-36.632;-64.318;2022-11-20T08:55:14;13.80;99.90
23053;DHT22;11694;-36.632;-64.318;2022-11-20T08:57:41;13.70;99.90
23053;DHT22;11694;-36.632;-64.318;2022-11-20T09:00:11;13.70;99.90
23053;DHT22;11694;-36.632;-64.318;2022-11-20T09:02:38;13.70;99.90
23053;DHT22;11694;-36.632;-64.318;2022-11-20T09:05:05;13.70;99.90
23053;DHT22;11694;-36.632;-64.318;2022-11-20T09:07:32;13.60;99.90
23053;DHT22;11694;-36.632;-64.318;2022-11-20T09:10:00;13.50;99.90
23053;DHT22;11694;-36.632;-64.318;2022-11-20T09:12:27;13.60;99.90
23053;DHT22;11694;-36.632;-64.318;2022-11-20T09:14:54;13.60;99.90
23053;DHT22;11694;-36.632;-64.318;2022-11-20T09:17:21;13.50;99.90
23053;DHT22;11694;-36.632;-64.318;2022-11-20T09:19:48;13.60;99.90
23053;DHT22;11694;-36.632;-64.318;2022-11-20T09:22:15;13.60;99.90
23053;DHT22;11694;-36.632;-64.318;2022-11-20T09:24:42;13.60;99.90
23053;DHT22;11694;-36.632;-64.318;2022-11-20T09:27:09;13.60;99.90
23053;DHT22;11694;-36.632;-64.318;2022-11-20T09:29:36;13.60;99.90
23053;DHT22;11694;-36.632;-64.318;2022-11-20T09:32:03;13.60;99.90
23053;DHT22;11694;-36.632;-64.318;2022-11-20T09:34:30;13.60;99.90
23053;DHT22;11694;-36.632;-64.318;2022-11-20T09:36:57;13.60;99.90
23053;DHT22;11694;-36.632;-64.318;2022-11-20T09:39:24;13.60;99.90
23053;DHT22;11694;-36.632;-64.318;2022-11-20T09:44:48;13.60;99.90
23053;DHT22;11694;-36.632;-64.318;2022-11-20T09:50:28;13.60;99.90
23053;DHT22;11694;-36.632;-64.318;2022-11-20T09:53:11;14.00;99.90
23053;DHT22;11694;-36.632;-64.318;2022-11-20T09:55:39;14.20;99.90
23053;DHT22;11694;-36.632;-64.318;2022-11-20T09:58:07;14.40;99.90
23053;DHT22;11694;-36.632;-64.318;2022-11-20T10:00:37;14.40;99.90
23053;DHT22;11694;-36.632;-64.318;2022-11-20T10:03:56;14.50;99.90
23053;DHT22;11694;-36.632;-64.318;2022-11-20T10:06:18;14.50;99.90
23053;DHT22;11694;-36.632;-64.318;2022-11-20T10:08:59;14.50;99.90
23053;DHT22;11694;-36.632;-64.318;2022-11-20T10:14:05;13.80;99.90
23053;DHT22;11694;-36.632;-64.318;2022-11-20T10:19:32;13.90;99.90
23053;DHT22;11694;-36.632;-64.318;2022-11-20T10:22:15;13.90;99.90
23053;DHT22;11694;-36.632;-64.318;2022-11-20T10:30:19;14.80;99.90
23053;DHT22;11694;-36.632;-64.318;2022-11-20T10:32:58;14.50;99.90
23053;DHT22;11694;-36.632;-64.318;2022-11-20T10:36:14;14.50;99.90
23053;DHT22;11694;-36.632;-64.318;2022-11-20T10:40:51;14.30;99.90
23053;DHT22;11694;-36.632;-64.318;2022-11-20T10:43:40;14.30;99.90
23053;DHT22;11694;-36.632;-64.318;2022-11-20T10:46:21;14.40;99.90
23053;DHT22;11694;-36.632;-64.318;2022-11-20T10:48:49;14.50;99.90
23053;DHT22;11694;-36.632;-64.318;2022-11-20T10:54:09;14.60;99.90
23053;DHT22;11694;-36.632;-64.318;2022-11-20T10:56:55;14.70;99.90
23053;DHT22;11694;-36.632;-64.318;2022-11-20T11:00:08;14.80;99.90
23053;DHT22;11694;-36.632;-64.318;2022-11-20T11:02:47;14.90;99.90
23053;DHT22;11694;-36.632;-64.318;2022-11-20T11:05:17;15.10;99.90
23053;DHT22;11694;-36.632;-64.318;2022-11-20T11:07:55;15.20;99.90
23053;DHT22;11694;-36.632;-64.318;2022-11-20T11:13:04;15.60;99.90
23053;DHT22;11694;-36.632;-64.318;2022-11-20T11:15:39;15.70;99.90
23053;DHT22;11694;-36.632;-64.318;2022-11-20T11:18:10;16.00;99.90
23053;DHT22;11694;-36.632;-64.318;2022-11-20T11:20:38;16.30;99.90
23053;DHT22;11694;-36.632;-64.318;2022-11-20T11:23:10;16.60;99.90
23053;DHT22;11694;-36.632;-64.318;2022-11-20T11:25:57;16.60;99.90
23053;DHT22;11694;-36.632;-64.318;2022-11-20T11:28:26;16.50;99.90
23053;DHT22;11694;-36.632;-64.318;2022-11-20T11:30:54;16.50;99.90
23053;DHT22;11694;-36.632;-64.318;2022-11-20T11:33:24;16.40;99.90
23053;DHT22;11694;-36.632;-64.318;2022-11-20T11:35:57;16.20;99.90
23053;DHT22;11694;-36.632;-64.318;2022-11-20T11:38:38;15.90;99.90
23053;DHT22;11694;-36.632;-64.318;2022-11-20T11:41:08;15.80;99.90
23053;DHT22;11694;-36.632;-64.318;2022-11-20T11:43:36;15.90;99.90
23053;DHT22;11694;-36.632;-64.318;2022-11-20T11:48:59;16.10;99.90
23053;DHT22;11694;-36.632;-64.318;2022-11-20T11:52:29;16.20;99.90
23053;DHT22;11694;-36.632;-64.318;2022-11-20T11:54:51;16.20;99.90
23053;DHT22;11694;-36.632;-64.318;2022-11-20T12:00:14;16.30;99.90
23053;DHT22;11694;-36.632;-64.318;2022-11-20T12:10:48;16.50;99.90
23053;DHT22;11694;-36.632;-64.318;2022-11-20T12:13:35;16.50;99.90
23053;DHT22;11694;-36.632;-64.318;2022-11-20T12:16:07;16.60;99.90
23053;DHT22;11694;-36.632;-64.318;2022-11-20T12:18:37;16.60;99.90
23053;DHT22;11694;-36.632;-64.318;2022-11-20T12:49:00;17.60;99.90
23053;DHT22;11694;-36.632;-64.318;2022-11-20T12:56:55;18.70;99.90
23053;DHT22;11694;-36.632;-64.318;2022-11-20T12:59:39;18.30;99.90
23053;DHT22;11694;-36.632;-64.318;2022-11-20T13:02:24;18.70;99.90
23053;DHT22;11694;-36.632;-64.318;2022-11-20T13:07:40;20.50;47.60
23053;DHT22;11694;-36.632;-64.318;2022-11-20T13:10:58;20.50;16.70
23053;DHT22;11694;-36.632;-64.318;2022-11-20T13:18:51;20.30;28.50
23053;DHT22;11694;-36.632;-64.318;2022-11-20T13:21:21;20.80;1.00
23053;DHT22;11694;-36.632;-64.318;2022-11-20T13:23:49;21.10;1.00
23053;DHT22;11694;-36.632;-64.318;2022-11-20T13:26:22;21.40;1.00
23053;DHT22;11694;-36.632;-64.318;2022-11-20T13:29:18;21.20;1.00
23053;DHT22;11694;-36.632;-64.318;2022-11-20T13:31:47;21.20;1.00
23053;DHT22;11694;-36.632;-64.318;2022-11-20T13:34:25;21.60;1.00
23053;DHT22;11694;-36.632;-64.318;2022-11-20T13:36:57;22.20;1.00
23053;DHT22;11694;-36.632;-64.318;2022-11-20T13:39:30;22.50;1.00
23053;DHT22;11694;-36.632;-64.318;2022-11-20T13:42:03;22.40;99.90
23053;DHT22;11694;-36.632;-64.318;2022-11-20T13:44:50;22.20;99.90
23053;DHT22;11694;-36.632;-64.318;2022-11-20T13:47:26;22.50;99.90
23053;DHT22;11694;-36.632;-64.318;2022-11-20T13:49:58;22.40;99.90
23053;DHT22;11694;-36.632;-64.318;2022-11-20T14:01:21;22.30;99.90
23053;DHT22;11694;-36.632;-64.318;2022-11-20T14:03:49;22.50;99.90
23053;DHT22;11694;-36.632;-64.318;2022-11-20T14:08:54;22.80;99.90
23053;DHT22;11694;-36.632;-64.318;2022-11-20T14:11:28;22.90;99.90
23053;DHT22;11694;-36.632;-64.318;2022-11-20T14:14:04;23.10;99.90
23053;DHT22;11694;-36.632;-64.318;2022-11-20T14:16:34;23.20;99.90
23053;DHT22;11694;-36.632;-64.318;2022-11-20T14:21:52;23.40;99.90
23053;DHT22;11694;-36.632;-64.318;2022-11-20T14:24:22;23.70;99.90
23053;DHT22;11694;-36.632;-64.318;2022-11-20T14:26:51;23.50;99.90
23053;DHT22;11694;-36.632;-64.318;2022-11-20T14:29:27;23.70;99.90
23053;DHT22;11694;-36.632;-64.318;2022-11-20T14:31:56;24.30;99.90
23053;DHT22;11694;-36.632;-64.318;2022-11-20T14:34:28;23.70;99.90
23053;DHT22;11694;-36.632;-64.318;2022-11-20T14:36:59;23.30;99.90
23053;DHT22;11694;-36.632;-64.318;2022-11-20T14:39:36;23.00;99.90
23053;DHT22;11694;-36.632;-64.318;2022-11-20T14:42:15;22.70;99.90
23053;DHT22;11694;-36.632;-64.318;2022-11-20T14:44:43;22.50;99.90
23053;DHT22;11694;-36.632;-64.318;2022-11-20T14:47:21;22.70;99.90
23053;DHT22;11694;-36.632;-64.318;2022-11-20T14:49:50;23.20;99.90
23053;DHT22;11694;-36.632;-64.318;2022-11-20T14:52:20;23.80;99.90
23053;DHT22;11694;-36.632;-64.318;2022-11-20T14:54:49;24.10;99.90
23053;DHT22;11694;-36.632;-64.318;2022-11-20T14:57:26;23.70;99.90
23053;DHT22;11694;-36.632;-64.318;2022-11-20T15:02:46;23.70;99.90
23053;DHT22;11694;-36.632;-64.318;2022-11-20T15:05:15;23.90;99.90
23053;DHT22;11694;-36.632;-64.318;2022-11-20T15:07:45;24.00;99.90
23053;DHT22;11694;-36.632;-64.318;2022-11-20T15:10:24;24.00;99.90
23053;DHT22;11694;-36.632;-64.318;2022-11-20T15:12:59;23.80;99.90
23053;DHT22;11694;-36.632;-64.318;2022-11-20T15:16:08;24.00;99.90
23053;DHT22;11694;-36.632;-64.318;2022-11-20T15:18:40;24.50;99.90
23053;DHT22;11694;-36.632;-64.318;2022-11-20T15:21:15;24.50;99.90
23053;DHT22;11694;-36.632;-64.318;2022-11-20T15:23:43;24.40;99.90
23053;DHT22;11694;-36.632;-64.318;2022-11-20T15:26:14;24.30;99.90
23053;DHT22;11694;-36.632;-64.318;2022-11-20T15:28:44;24.20;99.90
23053;DHT22;11694;-36.632;-64.318;2022-11-20T15:31:19;24.10;99.90
23053;DHT22;11694;-36.632;-64.318;2022-11-20T15:33:46;24.20;99.90
23053;DHT22;11694;-36.632;-64.318;2022-11-20T15:36:14;24.30;99.90
23053;DHT22;11694;-36.632;-64.318;2022-11-20T15:38:41;24.30;99.90
23053;DHT22;11694;-36.632;-64.318;2022-11-20T15:41:09;24.20;99.90
23053;DHT22;11694;-36.632;-64.318;2022-11-20T15:43:37;24.30;99.90
23053;DHT22;11694;-36.632;-64.318;2022-11-20T15:46:25;24.40;99.90
23053;DHT22;11694;-36.632;-64.318;2022-11-20T15:48:55;24.40;99.90
23053;DHT22;11694;-36.632;-64.318;2022-11-20T15:51:35;24.20;99.90
23053;DHT22;11694;-36.632;-64.318;2022-11-20T15:54:14;24.00;99.90
23053;DHT22;11694;-36.632;-64.318;2022-11-20T15:56:44;23.90;99.90
23053;DHT22;11694;-36.632;-64.318;2022-11-20T15:59:11;24.00;99.90
23053;DHT22;11694;-36.632;-64.318;2022-11-20T16:01:40;23.90;99.90
23053;DHT22;11694;-36.632;-64.318;2022-11-20T16:04:16;23.50;99.90
23053;DHT22;11694;-36.632;-64.318;2022-11-20T16:06:43;23.40;99.90
23053;DHT22;11694;-36.632;-64.318;2022-11-20T16:09:10;23.50;99.90
23053;DHT22;11694;-36.632;-64.318;2022-11-20T16:11:38;24.00;99.90
23053;DHT22;11694;-36.632;-64.318;2022-11-20T16:14:05;24.30;99.90
23053;DHT22;11694;-36.632;-64.318;2022-11-20T16:16:51;24.50;99.90
23053;DHT22;11694;-36.632;-64.318;2022-11-20T16:19:18;24.30;99.90
23053;DHT22;11694;-36.632;-64.318;2022-11-20T16:21:45;23.90;99.90
23053;DHT22;11694;-36.632;-64.318;2022-11-20T16:24:14;24.10;99.90
23053;DHT22;11694;-36.632;-64.318;2022-11-20T16:26:42;24.00;99.90
23053;DHT22;11694;-36.632;-64.318;2022-11-20T16:29:09;24.10;99.90
23053;DHT22;11694;-36.632;-64.318;2022-11-20T16:31:36;24.00;99.90
23053;DHT22;11694;-36.632;-64.318;2022-11-20T16:34:06;24.10;99.90
23053;DHT22;11694;-36.632;-64.318;2022-11-20T16:36:33;24.30;99.90
23053;DHT22;11694;-36.632;-64.318;2022-11-20T16:39:02;24.20;99.90
23053;DHT22;11694;-36.632;-64.318;2022-11-20T16:41:32;24.30;99.90
23053;DHT22;11694;-36.632;-64.318;2022-11-20T16:44:01;24.70;99.90
23053;DHT22;11694;-36.632;-64.318;2022-11-20T16:46:30;24.60;99.90
23053;DHT22;11694;-36.632;-64.318;2022-11-20T16:49:03;24.70;99.90
23053;DHT22;11694;-36.632;-64.318;2022-11-20T16:51:34;24.70;99.90
23053;DHT22;11694;-36.632;-64.318;2022-11-20T16:54:06;24.70;99.90
23053;DHT22;11694;-36.632;-64.318;2022-11-20T16:56:33;24.50;99.90
23053;DHT22;11694;-36.632;-64.318;2022-11-20T16:59:01;24.60;99.90
23053;DHT22;11694;-36.632;-64.318;2022-11-20T17:01:29;24.60;99.90
23053;DHT22;11694;-36.632;-64.318;2022-11-20T17:04:02;24.70;99.90